Time;durP1;ratioP1;P1;durP2;ratioP2;P2;SDS_P1;SDS_P2;PMS_P1;PMS_P2;Temp;Humidity;BMP_temperature;BMP_pressure;BME280_temperature;BME280_humidity;BME280_pressure;Samples;Min_cycle;Max_cycle;Signal;HPM_P1;HPM_P2
2024/04/17 00:02:02;;;;;;;2.73;0.30;;;10.20;80.00;;;;;;6687406;21;19991;-72
2024/04/17 00:18:28;;;;;;;1.17;0.50;;;10.10;80.20;;;;;;6273504;22;20007;-72
2024/04/17 00:21:38;;;;;;;0.63;0.38;;;10.10;80.40;;;;;;6074879;23;20081;-71
2024/04/17 00:24:24;;;;;;;0.67;0.40;;;10.10;80.70;;;;;;6102336;23;20002;-72
2024/04/17 00:26:49;;;;;;;0.80;0.37;;;10.00;80.90;;;;;;6132418;23;20100;-72
2024/04/17 00:29:24;;;;;;;0.83;0.40;;;10.00;81.10;;;;;;6133941;23;20002;-72
2024/04/17 00:31:50;;;;;;;0.53;0.33;;;10.00;81.60;;;;;;6244799;22;20390;-72
2024/04/17 00:34:16;;;;;;;0.53;0.30;;;10.00;81.50;;;;;;6406646;21;20361;-72
2024/04/17 00:36:42;;;;;;;0.97;0.30;;;10.00;80.90;;;;;;6687309;21;20006;-72
2024/04/17 00:39:07;;;;;;;6.80;0.70;;;10.00;80.70;;;;;;6687569;21;20005;-72
2024/04/17 00:41:33;;;;;;;0.40;0.40;;;9.90;80.90;;;;;;6686852;21;20086;-72
2024/04/17 00:43:59;;;;;;;1.08;0.43;;;9.90;81.10;;;;;;6686564;21;20005;-72
2024/04/17 00:46:26;;;;;;;0.40;0.40;;;9.90;81.10;;;;;;6686126;21;19991;-72
2024/04/17 00:48:51;;;;;;;1.00;0.37;;;9.90;81.00;;;;;;6684578;21;20298;-72
2024/04/17 00:51:17;;;;;;;1.05;0.35;;;9.90;81.30;;;;;;6686058;21;20067;-72
2024/04/17 00:53:43;;;;;;;0.70;0.20;;;9.90;81.20;;;;;;6685884;21;20068;-72
2024/04/17 00:56:09;;;;;;;0.60;0.35;;;9.90;80.70;;;;;;6685612;21;19990;-72
2024/04/17 00:58:35;;;;;;;0.87;0.53;;;9.90;80.60;;;;;;6683859;21;20452;-72
2024/04/17 01:01:01;;;;;;;1.38;0.40;;;9.90;81.00;;;;;;6682710;21;20513;-71
2024/04/17 01:03:28;;;;;;;3.83;0.50;;;9.90;81.00;;;;;;6682299;21;19990;-72
2024/04/17 01:05:54;;;;;;;1.02;0.45;;;9.90;80.60;;;;;;6686169;21;20468;-72
2024/04/17 01:08:20;;;;;;;0.73;0.30;;;9.80;80.50;;;;;;6686791;21;20003;-80
2024/04/17 01:10:46;;;;;;;2.03;0.40;;;9.90;81.00;;;;;;6685817;21;20009;-82
2024/04/17 01:13:11;;;;;;;3.17;0.40;;;9.80;81.40;;;;;;6685312;21;20006;-81
2024/04/17 01:15:37;;;;;;;1.33;0.50;;;9.80;81.50;;;;;;6685437;21;19995;-81
2024/04/17 01:18:04;;;;;;;2.25;1.05;;;9.80;81.70;;;;;;6685495;21;20003;-82
2024/04/17 01:20:30;;;;;;;0.43;0.32;;;9.80;81.90;;;;;;6684491;21;19999;-80
2024/04/17 01:22:56;;;;;;;0.50;0.40;;;9.80;82.10;;;;;;6685251;21;20009;-81
2024/04/17 01:25:23;;;;;;;0.83;0.40;;;9.70;81.60;;;;;;6685680;21;20002;-81
2024/04/17 01:27:48;;;;;;;3.20;0.40;;;9.70;81.50;;;;;;6685896;21;19987;-82
2024/04/17 01:30:14;;;;;;;0.80;0.50;;;9.70;81.20;;;;;;6687576;21;20006;-72
2024/04/17 01:32:43;;;;;;;3.23;0.53;;;9.70;80.90;;;;;;6687478;21;19991;-72
2024/04/17 01:35:09;;;;;;;1.00;0.50;;;9.70;81.60;;;;;;6686733;21;20035;-72
2024/04/17 01:37:34;;;;;;;0.70;0.40;;;9.70;82.20;;;;;;6639885;21;20419;-72
2024/04/17 01:40:29;;;;;;;0.87;0.40;;;9.70;81.40;;;;;;6686571;21;19995;-71
2024/04/17 01:53:53;;;;;;;;;;;;;;;;;;;;;
2024/04/17 02:00:26;;;;;;;2.03;0.60;;;9.60;80.30;;;;;;6227780;23;20423;-71
2024/04/17 02:06:52;;;;;;;1.40;0.50;;;9.60;80.80;;;;;;6187196;23;20193;-81
2024/04/17 02:09:18;;;;;;;4.10;0.70;;;9.50;82.80;;;;;;6226962;23;20001;-72
2024/04/17 02:11:44;;;;;;;1.53;0.60;;;9.50;83.50;;;;;;6322680;22;20378;-72
2024/04/17 02:14:10;;;;;;;1.73;0.40;;;9.30;83.80;;;;;;6565421;21;20300;-72
2024/04/17 02:16:36;;;;;;;1.80;0.40;;;9.30;83.80;;;;;;6686030;21;20003;-72
2024/04/17 02:19:02;;;;;;;1.33;0.30;;;9.30;83.80;;;;;;6685187;21;20004;-72
2024/04/17 02:21:28;;;;;;;2.17;0.40;;;9.20;83.00;;;;;;6684118;21;20042;-72
2024/04/17 02:23:53;;;;;;;3.43;0.50;;;9.10;83.10;;;;;;6686013;21;20010;-73
2024/04/17 02:26:19;;;;;;;2.27;0.30;;;9.00;83.30;;;;;;6688193;21;19990;-72
2024/04/17 02:28:45;;;;;;;1.97;0.40;;;9.00;83.30;;;;;;6688802;21;20020;-72
2024/04/17 02:31:11;;;;;;;2.20;0.40;;;8.90;83.60;;;;;;6688212;21;20007;-73
2024/04/17 02:33:36;;;;;;;0.60;0.33;;;8.90;83.90;;;;;;6686190;21;19987;-72
2024/04/17 02:36:02;;;;;;;0.43;0.30;;;8.80;84.10;;;;;;6637190;21;19991;-72
2024/04/17 02:38:28;;;;;;;0.57;0.30;;;8.80;84.00;;;;;;6684334;21;19991;-72
2024/04/17 02:40:54;;;;;;;3.40;0.40;;;8.80;84.40;;;;;;6684834;21;20001;-72
2024/04/17 02:43:19;;;;;;;2.97;0.30;;;8.80;84.50;;;;;;6684641;21;19999;-72
2024/04/17 02:45:45;;;;;;;0.27;0.20;;;8.70;84.50;;;;;;6684222;21;19998;-73
2024/04/17 02:48:11;;;;;;;2.27;0.30;;;8.70;84.30;;;;;;6638506;21;20001;-72
2024/04/17 02:50:40;;;;;;;0.60;0.20;;;8.70;84.30;;;;;;6641525;21;20008;-72
2024/04/17 02:53:06;;;;;;;1.63;0.30;;;8.70;84.50;;;;;;6641722;21;20006;-72
2024/04/17 02:55:31;;;;;;;0.43;0.20;;;8.60;84.60;;;;;;6688651;21;20010;-71
2024/04/17 02:57:57;;;;;;;1.10;0.30;;;8.60;84.60;;;;;;6688790;21;19999;-71
2024/04/17 03:00:23;;;;;;;0.63;0.30;;;8.60;84.60;;;;;;6688175;21;19999;-71
2024/04/17 03:02:49;;;;;;;0.43;0.30;;;8.50;84.40;;;;;;6688186;21;19999;-71
2024/04/17 03:05:15;;;;;;;0.50;0.30;;;8.50;84.60;;;;;;6688396;21;19999;-72
2024/04/17 03:07:44;;;;;;;1.00;0.30;;;8.50;84.50;;;;;;6688242;21;20072;-71
2024/04/17 03:10:10;;;;;;;0.37;0.30;;;8.50;84.80;;;;;;6688726;21;20005;-71
2024/04/17 03:12:36;;;;;;;0.40;0.30;;;8.50;85.00;;;;;;6642162;21;20008;-71
2024/04/17 03:15:03;;;;;;;1.33;0.30;;;8.50;85.20;;;;;;6689315;21;20010;-72
2024/04/17 03:17:30;;;;;;;0.37;0.30;;;8.50;85.10;;;;;;6689090;21;19995;-72
2024/04/17 03:20:26;;;;;;;;;;;;;;;;;;;;;
2024/04/17 03:37:25;;;;;;;1.37;0.40;;;8.50;86.20;;;;;;6372771;22;20012;-71
2024/04/17 03:39:57;;;;;;;0.57;0.33;;;8.50;85.90;;;;;;6460962;22;20294;-71
2024/04/17 03:45:55;;;;;;;5.50;0.50;;;8.40;85.90;;;;;;6276299;22;20081;-72
2024/04/17 03:48:21;;;;;;;2.80;0.50;;;8.40;85.90;;;;;;6356569;22;20044;-72
2024/04/17 03:50:47;;;;;;;0.80;0.50;;;8.40;86.00;;;;;;6664388;21;20296;-72
2024/04/17 03:53:13;;;;;;;2.33;0.50;;;8.40;86.10;;;;;;6688215;21;20049;-72
2024/04/17 03:55:39;;;;;;;4.47;0.90;;;8.30;86.20;;;;;;6688190;21;19995;-72
2024/04/17 03:58:04;;;;;;;0.90;0.30;;;8.40;86.10;;;;;;6688200;21;19991;-72
2024/04/17 04:00:30;;;;;;;1.83;0.40;;;8.30;86.20;;;;;;6687931;21;19991;-72
2024/04/17 04:02:56;;;;;;;2.03;0.50;;;8.30;86.20;;;;;;6687545;21;19991;-72
2024/04/17 04:05:22;;;;;;;3.10;0.50;;;8.40;86.20;;;;;;6687289;21;19991;-72
2024/04/17 04:07:48;;;;;;;0.50;0.30;;;8.30;86.10;;;;;;6686187;21;20002;-73
2024/04/17 04:10:13;;;;;;;0.63;0.50;;;8.30;86.20;;;;;;6686234;21;20006;-72
2024/04/17 04:12:39;;;;;;;3.03;0.60;;;8.30;86.40;;;;;;6686132;21;20007;-72
2024/04/17 04:15:07;;;;;;;3.13;0.53;;;8.30;86.40;;;;;;6687299;21;19994;-73
2024/04/17 04:17:32;;;;;;;4.10;0.67;;;8.30;86.30;;;;;;6686234;21;19987;-71
2024/04/17 04:19:58;;;;;;;1.17;0.40;;;8.30;86.40;;;;;;6686922;21;20060;-72
2024/04/17 04:22:25;;;;;;;1.47;0.50;;;8.30;86.60;;;;;;6687167;21;19999;-72
2024/04/17 04:24:51;;;;;;;1.53;0.50;;;8.30;86.80;;;;;;6687372;21;19987;-72
2024/04/17 04:27:17;;;;;;;2.67;0.57;;;8.20;86.70;;;;;;6687518;21;20037;-82
2024/04/17 04:29:42;;;;;;;2.43;0.63;;;8.20;87.00;;;;;;6687122;21;19991;-82
2024/04/17 04:32:08;;;;;;;3.63;0.57;;;8.20;87.10;;;;;;6687213;21;19995;-83
2024/04/17 04:34:34;;;;;;;2.03;0.70;;;8.20;87.10;;;;;;6686999;21;20064;-83
2024/04/17 04:37:00;;;;;;;0.80;0.60;;;8.10;87.40;;;;;;6687168;21;20068;-80
2024/04/17 04:39:25;;;;;;;1.30;0.80;;;8.20;87.60;;;;;;6687477;21;20002;-82
2024/04/17 04:41:53;;;;;;;1.80;0.60;;;8.20;87.50;;;;;;6687226;21;20002;-82
2024/04/17 04:44:19;;;;;;;3.13;0.80;;;8.20;87.50;;;;;;6687150;21;20291;-83
2024/04/17 04:46:45;;;;;;;1.60;0.87;;;8.20;87.40;;;;;;6687057;21;20006;-72
2024/04/17 04:49:11;;;;;;;2.23;0.80;;;8.20;87.20;;;;;;6687084;21;19991;-71
2024/04/17 04:51:37;;;;;;;2.30;0.80;;;8.20;87.20;;;;;;6687483;21;19991;-71
2024/04/17 04:54:03;;;;;;;7.93;1.10;;;8.20;87.20;;;;;;6687646;21;20041;-71
2024/04/17 04:56:29;;;;;;;2.33;0.90;;;8.20;87.20;;;;;;6687508;21;20486;-71
2024/04/17 04:59:00;;;;;;;0.93;0.67;;;8.20;87.60;;;;;;6687842;21;19999;-71
2024/04/17 05:09:21;;;;;;;3.23;1.07;;;8.30;87.90;;;;;;6419779;22;20122;-71
2024/04/17 05:12:39;;;;;;;2.73;0.90;;;8.30;87.80;;;;;;6419846;22;20003;-71
2024/04/17 05:19:23;;;;;;;2.50;0.60;;;8.30;87.10;;;;;;6370365;22;19999;-71
2024/04/17 05:25:52;;;;;;;1.20;0.80;;;8.30;86.30;;;;;;6134618;23;19998;-71
2024/04/17 05:28:18;;;;;;;1.20;0.50;;;8.40;87.00;;;;;;6184249;23;20400;-71
2024/04/17 05:30:44;;;;;;;7.07;0.80;;;8.40;87.00;;;;;;6580347;21;20330;-73
2024/04/17 05:33:10;;;;;;;4.83;0.80;;;8.40;86.90;;;;;;6686158;21;19991;-72
2024/04/17 05:35:36;;;;;;;6.50;0.70;;;8.40;87.10;;;;;;6686465;21;20068;-72
2024/04/17 05:38:02;;;;;;;2.63;0.83;;;8.40;86.80;;;;;;6638860;21;20005;-71
2024/04/17 05:40:27;;;;;;;1.73;0.70;;;8.50;87.10;;;;;;6638870;21;19990;-72
2024/04/17 06:02:32;;;;;;;1.33;0.70;;;8.80;86.30;;;;;;6784145;21;20007;-70
2024/04/17 06:04:58;;;;;;;1.83;0.87;;;8.80;86.40;;;;;;6749962;21;19997;-71
2024/04/17 06:07:24;;;;;;;2.70;0.93;;;8.90;86.70;;;;;;6798738;21;20021;-71
2024/04/17 06:09:50;;;;;;;3.93;1.10;;;8.90;86.80;;;;;;6798803;21;20435;-71
2024/04/17 06:12:16;;;;;;;2.30;1.00;;;9.00;87.00;;;;;;6798915;21;19993;-71
2024/04/17 06:14:42;;;;;;;3.20;1.07;;;9.00;86.80;;;;;;6798666;21;20288;-77
2024/04/17 06:17:08;;;;;;;2.83;1.17;;;9.10;86.50;;;;;;6799173;21;20070;-72
2024/04/17 06:19:34;;;;;;;2.00;1.40;;;9.10;86.50;;;;;;6799224;21;20047;-73
2024/04/17 06:22:00;;;;;;;2.13;1.10;;;9.20;86.90;;;;;;6795881;21;20051;-72
2024/04/17 06:24:26;;;;;;;1.60;1.00;;;9.20;87.50;;;;;;6797512;21;20001;-72
2024/04/17 06:26:52;;;;;;;3.10;0.90;;;9.30;87.20;;;;;;6798754;21;20008;-72
2024/04/17 06:29:17;;;;;;;2.70;0.90;;;9.30;86.90;;;;;;6798544;21;19989;-72
2024/04/17 06:31:43;;;;;;;1.50;0.60;;;9.30;86.30;;;;;;6797801;21;20000;-73
2024/04/17 06:34:09;;;;;;;1.40;0.50;;;9.40;86.60;;;;;;6798083;21;19997;-73
2024/04/17 06:36:35;;;;;;;3.13;0.80;;;9.40;86.80;;;;;;6798241;21;20004;-73
2024/04/17 06:39:01;;;;;;;4.90;0.90;;;9.50;86.40;;;;;;6798348;21;20001;-73
2024/04/17 06:41:27;;;;;;;3.13;0.70;;;9.50;86.10;;;;;;6796852;21;19993;-72
2024/04/17 06:43:53;;;;;;;1.13;0.60;;;9.60;86.10;;;;;;6797725;21;19997;-72
2024/04/17 06:46:19;;;;;;;0.90;0.43;;;9.70;86.00;;;;;;6798529;21;19997;-73
2024/04/17 06:48:44;;;;;;;5.77;0.80;;;9.80;86.50;;;;;;6799184;21;19993;-73
2024/04/17 06:51:11;;;;;;;1.87;0.57;;;9.80;86.20;;;;;;6749951;21;19994;-73
2024/04/17 06:53:36;;;;;;;1.20;0.50;;;9.90;85.70;;;;;;6796643;21;19997;-73
2024/04/17 06:56:02;;;;;;;2.30;0.40;;;9.90;85.10;;;;;;6797255;21;20046;-73
2024/04/17 06:58:28;;;;;;;1.30;0.53;;;9.90;84.90;;;;;;6797271;21;20025;-73
2024/04/17 07:00:55;;;;;;;1.57;0.40;;;9.90;84.70;;;;;;6796810;21;20388;-73
2024/04/17 07:03:20;;;;;;;2.20;0.57;;;9.90;85.30;;;;;;6793168;21;19994;-73
2024/04/17 07:05:46;;;;;;;1.67;0.70;;;9.90;85.20;;;;;;6797404;21;19994;-72
2024/04/17 07:08:12;;;;;;;2.70;0.50;;;10.00;85.00;;;;;;6798231;21;19993;-73
2024/04/17 07:10:38;;;;;;;3.50;0.53;;;10.00;84.60;;;;;;6750349;21;20008;-70
2024/04/17 07:13:07;;;;;;;1.00;0.50;;;10.10;84.20;;;;;;6750300;21;20309;-70
2024/04/17 07:15:57;;;;;;;3.20;0.70;;;10.10;83.20;;;;;;6799206;21;20291;-69
2024/04/17 07:18:46;;;;;;;3.10;0.53;;;10.10;83.30;;;;;;6797276;21;20057;-70
2024/04/17 07:21:15;;;;;;;3.83;0.97;;;10.20;83.40;;;;;;6798277;21;20141;-70
2024/04/17 07:24:16;;;;;;;2.27;0.47;;;10.20;83.20;;;;;;6797907;21;20021;-70
2024/04/17 07:27:08;;;;;;;2.33;0.60;;;10.30;82.80;;;;;;6569328;21;19993;-71
2024/04/17 07:29:58;;;;;;;3.93;0.50;;;10.30;83.00;;;;;;6521247;22;20004;-71
2024/04/17 07:32:24;;;;;;;2.53;0.70;;;10.40;82.70;;;;;;6524140;22;20045;-71
2024/04/17 07:34:59;;;;;;;3.37;0.63;;;10.40;82.90;;;;;;6522011;22;20004;-71
2024/04/17 07:37:25;;;;;;;2.47;0.60;;;10.40;83.30;;;;;;6524225;22;20021;-71
2024/04/17 07:39:54;;;;;;;1.67;0.80;;;10.50;82.60;;;;;;6523928;22;20007;-71
2024/04/17 07:42:20;;;;;;;4.82;0.73;;;10.60;82.50;;;;;;6523897;22;20048;-72
2024/04/17 07:44:49;;;;;;;4.78;1.27;;;10.60;82.60;;;;;;6524491;22;20548;-71
2024/04/17 07:47:14;;;;;;;2.70;0.60;;;10.70;82.20;;;;;;6623826;21;19993;-71
2024/04/17 07:49:41;;;;;;;3.47;0.77;;;10.70;82.20;;;;;;6797823;21;20241;-71
2024/04/17 07:52:07;;;;;;;5.05;0.80;;;10.70;82.50;;;;;;6797772;21;20002;-71
2024/04/17 07:54:32;;;;;;;8.27;0.70;;;10.80;82.00;;;;;;6749071;21;20412;-71
2024/04/17 07:56:58;;;;;;;1.33;0.82;;;10.90;82.30;;;;;;6797243;21;19997;-71
2024/04/17 07:59:24;;;;;;;1.17;0.60;;;10.90;82.30;;;;;;6796743;21;19989;-71
2024/04/17 08:01:50;;;;;;;3.72;0.70;;;10.90;82.60;;;;;;6747162;21;20002;-71
2024/04/17 08:04:15;;;;;;;3.72;0.80;;;11.00;82.10;;;;;;6796396;21;19990;-71
2024/04/17 08:06:41;;;;;;;1.75;1.00;;;11.00;81.60;;;;;;6795706;21;19994;-71
2024/04/17 08:09:07;;;;;;;1.60;0.50;;;11.00;81.60;;;;;;6796722;21;20000;-71
2024/04/17 08:11:35;;;;;;;3.65;0.80;;;11.10;82.10;;;;;;6797502;21;19999;-70
2024/04/17 08:14:02;;;;;;;1.55;0.63;;;11.10;82.00;;;;;;6797847;21;19985;-71
2024/04/17 08:16:28;;;;;;;0.93;0.50;;;11.20;82.50;;;;;;6797948;21;20429;-79
2024/04/17 08:18:53;;;;;;;3.92;0.85;;;11.20;83.00;;;;;;6797886;21;19993;-71
2024/04/17 08:21:21;;;;;;;2.55;0.95;;;11.30;83.10;;;;;;6797576;21;19993;-70
2024/04/17 08:23:47;;;;;;;1.13;0.70;;;11.40;82.70;;;;;;6797021;21;19997;-71
2024/04/17 08:26:12;;;;;;;0.90;0.50;;;11.50;83.30;;;;;;6797686;21;20000;-70
2024/04/17 08:28:38;;;;;;;2.60;0.60;;;11.50;83.00;;;;;;6748731;21;19989;-71
2024/04/17 08:31:04;;;;;;;5.10;0.50;;;11.60;82.70;;;;;;6797264;21;19994;-71
2024/04/17 08:33:30;;;;;;;3.45;0.40;;;11.70;82.40;;;;;;6797313;21;19997;-71
2024/04/17 08:35:55;;;;;;;2.53;0.60;;;11.70;81.60;;;;;;6797718;21;19989;-71
2024/04/17 08:38:21;;;;;;;1.17;0.50;;;11.80;81.20;;;;;;6796338;21;20001;-71
2024/04/17 08:40:47;;;;;;;1.48;0.55;;;11.80;80.70;;;;;;6796949;21;20003;-71
2024/04/17 08:43:24;;;;;;;1.98;0.50;;;11.90;79.90;;;;;;6796586;21;20059;-71
2024/04/17 08:45:53;;;;;;;2.42;0.70;;;11.90;79.60;;;;;;6748843;21;20368;-71
2024/04/17 08:48:21;;;;;;;0.70;0.40;;;11.90;79.30;;;;;;6797230;21;19994;-71
2024/04/17 08:50:47;;;;;;;4.00;0.55;;;12.00;78.80;;;;;;6797178;21;19994;-72
2024/04/17 08:53:19;;;;;;;5.97;0.50;;;12.10;79.40;;;;;;6798325;21;20321;-71
2024/04/17 08:55:47;;;;;;;5.20;0.90;;;12.10;79.90;;;;;;6797945;21;20004;-70
2024/04/17 08:58:13;;;;;;;4.90;2.60;;;12.20;79.90;;;;;;6798565;21;20070;-70
2024/04/17 09:00:40;;;;;;;3.28;0.60;;;12.20;79.60;;;;;;6798441;21;20006;-70
